createdAt,value
2024-04-12T00:02:09.615Z,7.28
2024-04-12T00:04:37.169Z,7.11
2024-04-12T00:07:06.867Z,7.14
2024-04-12T00:09:33.834Z,7.17
2024-04-12T00:12:02.369Z,7.11
2024-04-12T00:14:29.566Z,7.21
2024-04-12T00:16:57.831Z,7.24
2024-04-12T00:19:25.185Z,7.18
2024-04-12T00:21:54.516Z,7.23
2024-04-12T00:24:26.274Z,7.31
2024-04-12T00:26:57.213Z,7.35
2024-04-12T00:29:28.047Z,7.35
2024-04-12T00:32:06.779Z,7.20
2024-04-12T00:34:39.875Z,7.11
2024-04-12T00:37:08.835Z,7.10
2024-04-12T00:39:40.409Z,7.06
2024-04-12T00:42:08.988Z,7.12
2024-04-12T00:44:40.950Z,7.05
2024-04-12T00:47:17.643Z,6.94
2024-04-12T00:49:51.949Z,6.79
2024-04-12T00:52:24.751Z,6.72
2024-04-12T00:55:05.205Z,6.61
2024-04-12T00:57:38.101Z,6.50
2024-04-12T01:00:11.880Z,6.55
2024-04-12T01:02:43.405Z,6.52
2024-04-12T01:05:19.151Z,6.61
2024-04-12T01:07:51.832Z,6.51
2024-04-12T01:10:27.209Z,6.32
2024-04-12T01:12:59.323Z,6.19
2024-04-12T01:15:34.529Z,6.12
2024-04-12T01:18:06.605Z,6.03
2024-04-12T01:20:37.101Z,5.95
2024-04-12T01:23:05.927Z,5.92
2024-04-12T01:25:35.840Z,5.85
2024-04-12T01:28:05.929Z,5.80
2024-04-12T01:30:32.919Z,5.76
2024-04-12T01:33:00.578Z,5.75
2024-04-12T01:35:27.851Z,5.77
2024-04-12T01:37:54.801Z,5.81
2024-04-12T01:40:24.698Z,5.86
2024-04-12T01:42:53.477Z,5.91
2024-04-12T01:45:28.941Z,5.98
2024-04-12T01:47:56.701Z,6.01
2024-04-12T01:50:24.201Z,6.06
2024-04-12T01:52:55.657Z,6.03
2024-04-12T01:55:24.496Z,6.01
2024-04-12T01:57:52.854Z,5.97
2024-04-12T02:00:22.050Z,5.91
2024-04-12T02:02:53.389Z,5.89
2024-04-12T02:05:34.297Z,5.89
2024-04-12T02:08:12.093Z,5.90
2024-04-12T02:10:43.318Z,5.82
2024-04-12T02:13:21.968Z,5.86
2024-04-12T02:15:53.655Z,5.90
2024-04-12T02:18:25.286Z,5.96
2024-04-12T02:20:54.548Z,5.96
2024-04-12T02:23:23.266Z,5.98
2024-04-12T02:25:51.303Z,5.96
2024-04-12T02:28:19.145Z,5.95
2024-04-12T02:30:47.657Z,5.97
2024-04-12T02:33:19.297Z,6.01
2024-04-12T02:35:47.125Z,6.02
2024-04-12T02:38:22.290Z,6.00
2024-04-12T02:40:49.994Z,5.90
2024-04-12T02:43:17.737Z,5.81
2024-04-12T02:45:51.917Z,5.70
2024-04-12T02:48:21.593Z,5.61
2024-04-12T02:50:55.399Z,5.54
2024-04-12T02:53:24.503Z,5.45
2024-04-12T02:56:02.337Z,5.37
2024-04-12T02:58:41.471Z,5.27
2024-04-12T03:01:10.029Z,5.23
2024-04-12T03:03:42.987Z,5.23
2024-04-12T03:06:11.472Z,5.34
2024-04-12T03:08:45.381Z,5.35
2024-04-12T03:11:24.273Z,5.37
2024-04-12T03:14:00.694Z,5.38
2024-04-12T03:16:28.099Z,5.34
2024-04-12T03:18:55.597Z,5.26
2024-04-12T03:21:25.692Z,5.25
2024-04-12T03:23:52.899Z,5.25
2024-04-12T03:26:23.337Z,5.23
2024-04-12T03:28:59.661Z,5.22
2024-04-12T03:31:28.239Z,5.29
2024-04-12T03:33:56.651Z,5.29
2024-04-12T03:36:28.337Z,5.23
2024-04-12T03:39:17.819Z,5.17
2024-04-12T03:41:45.698Z,5.22
2024-04-12T03:44:12.601Z,5.25
2024-04-12T03:46:41.921Z,5.27
2024-04-12T03:49:11.148Z,5.30
2024-04-12T03:51:45.283Z,5.30
2024-04-12T03:54:13.735Z,5.26
2024-04-12T03:56:40.417Z,5.20
2024-04-12T03:59:07.087Z,5.17
2024-04-12T04:01:38.104Z,5.19
2024-04-12T04:04:11.689Z,5.26
2024-04-12T04:06:38.708Z,5.32
2024-04-12T04:09:12.774Z,5.30
2024-04-12T04:11:46.909Z,5.30
2024-04-12T04:14:15.116Z,5.34
2024-04-12T04:16:42.580Z,5.35
2024-04-12T04:19:18.619Z,5.34
2024-04-12T04:21:47.279Z,5.23
2024-04-12T04:24:13.966Z,5.18
2024-04-12T04:26:41.979Z,5.04
2024-04-12T04:29:10.879Z,4.91
2024-04-12T04:31:49.074Z,4.82
2024-04-12T04:34:16.893Z,4.73
2024-04-12T04:36:51.203Z,4.69
2024-04-12T04:39:19.103Z,4.68
2024-04-12T04:41:51.401Z,4.67
2024-04-12T04:44:18.626Z,4.67
2024-04-12T04:46:50.366Z,4.68
2024-04-12T04:49:22.424Z,4.71
2024-04-12T04:51:50.273Z,4.75
2024-04-12T04:54:21.257Z,4.76
2024-04-12T04:56:48.292Z,4.83
2024-04-12T04:59:30.058Z,4.91
2024-04-12T05:01:57.948Z,4.99
2024-04-12T05:04:26.696Z,5.03
2024-04-12T05:06:54.219Z,5.08
2024-04-12T05:09:21.436Z,5.16
2024-04-12T05:11:52.317Z,5.27
2024-04-12T05:14:35.522Z,5.37
2024-04-12T05:17:08.716Z,5.49
2024-04-12T05:19:42.538Z,5.61
2024-04-12T05:22:11.974Z,5.79
2024-04-12T05:24:41.660Z,5.93
2024-04-12T05:27:13.257Z,6.16
2024-04-12T05:29:42.262Z,6.32
2024-04-12T05:32:11.604Z,6.48
2024-04-12T05:34:38.816Z,6.67
2024-04-12T05:37:05.727Z,6.79
2024-04-12T05:39:37.676Z,6.91
2024-04-12T05:42:08.694Z,6.97
2024-04-12T05:44:36.352Z,7.00
2024-04-12T05:47:11.530Z,7.01
2024-04-12T05:49:38.270Z,7.13
2024-04-12T05:52:08.438Z,7.29
2024-04-12T05:54:46.617Z,7.40
2024-04-12T05:57:13.967Z,7.46
2024-04-12T05:59:43.842Z,7.55
2024-04-12T06:02:11.565Z,7.64
2024-04-12T06:04:38.302Z,7.68
2024-04-12T06:07:14.783Z,7.84
2024-04-12T06:09:41.939Z,7.73
2024-04-12T06:12:09.289Z,7.77
2024-04-12T06:14:40.059Z,7.83
2024-04-12T06:17:10.977Z,7.93
2024-04-12T06:19:39.783Z,8.13
2024-04-12T06:22:14.782Z,8.15
2024-04-12T06:24:44.290Z,8.32
2024-04-12T06:27:11.211Z,8.53
2024-04-12T06:29:39.237Z,8.69
2024-04-12T06:32:09.496Z,8.71
2024-04-12T06:34:39.553Z,8.96
2024-04-12T06:37:10.244Z,9.08
2024-04-12T06:39:38.361Z,9.22
2024-04-12T06:42:05.975Z,9.39
2024-04-12T06:44:33.183Z,9.40
2024-04-12T06:47:00.059Z,9.55
2024-04-12T06:49:30.110Z,9.83
2024-04-12T06:52:11.035Z,10.12
2024-04-12T06:54:44.249Z,10.36
2024-04-12T06:57:19.546Z,10.53
2024-04-12T06:59:55.215Z,10.63
2024-04-12T07:02:26.238Z,10.73
2024-04-12T07:04:58.365Z,10.84
2024-04-12T07:07:26.182Z,10.96
2024-04-12T07:09:59.559Z,11.06
2024-04-12T07:12:32.839Z,11.24
2024-04-12T07:15:00.315Z,11.37
2024-04-12T07:17:27.867Z,11.45
2024-04-12T07:19:58.593Z,11.62
2024-04-12T07:22:29.750Z,11.73
2024-04-12T07:24:58.434Z,11.83
2024-04-12T07:27:29.527Z,11.97
2024-04-12T07:29:59.659Z,11.99
2024-04-12T07:32:27.322Z,12.06
2024-04-12T07:34:54.458Z,12.19
2024-04-12T07:37:37.613Z,12.39
2024-04-12T07:40:19.528Z,12.61
2024-04-12T07:42:47.697Z,12.83
2024-04-12T07:45:24.908Z,12.83
2024-04-12T07:48:01.806Z,12.96
2024-04-12T07:50:30.609Z,13.02
2024-04-12T07:52:59.980Z,13.21
2024-04-12T07:55:26.716Z,13.42
2024-04-12T07:57:56.263Z,13.49
2024-04-12T08:00:49.229Z,13.66
2024-04-12T08:03:18.858Z,13.74
2024-04-12T08:06:05.115Z,13.91
2024-04-12T08:08:45.034Z,14.12
2024-04-12T08:11:37.335Z,14.27
2024-04-12T08:14:10.038Z,14.41
2024-04-12T08:16:38.423Z,14.54
2024-04-12T08:19:14.116Z,14.65
2024-04-12T08:21:44.833Z,14.66
2024-04-12T08:24:16.450Z,14.91
2024-04-12T08:26:49.590Z,15.01
2024-04-12T08:29:30.240Z,14.93
2024-04-12T08:32:13.063Z,14.97
2024-04-12T08:34:46.979Z,15.04
2024-04-12T08:37:14.897Z,15.08
2024-04-12T08:39:46.176Z,15.21
2024-04-12T08:42:15.970Z,15.24
2024-04-12T08:44:44.943Z,15.30
2024-04-12T08:47:28.490Z,15.43
2024-04-12T08:50:05.050Z,15.54
2024-04-12T08:52:44.941Z,15.59
2024-04-12T08:55:18.688Z,15.62
2024-04-12T08:57:49.385Z,15.71
2024-04-12T09:00:26.575Z,15.81
2024-04-12T09:03:04.677Z,15.84
2024-04-12T09:05:37.190Z,15.80
2024-04-12T09:08:08.278Z,15.86
2024-04-12T09:10:37.417Z,15.87
2024-04-12T09:13:10.679Z,15.87
2024-04-12T09:15:40.234Z,15.93
2024-04-12T09:18:15.804Z,16.04
2024-04-12T09:20:46.477Z,16.16
2024-04-12T09:23:18.364Z,16.22
2024-04-12T09:25:56.247Z,16.39
2024-04-12T09:28:28.553Z,16.40
2024-04-12T09:31:31.363Z,16.49
2024-04-12T09:34:18.942Z,16.56
2024-04-12T09:37:03.701Z,16.72
2024-04-12T09:39:59.311Z,16.79
2024-04-12T09:42:29.838Z,16.87
2024-04-12T09:45:10.811Z,16.86
2024-04-12T09:48:00.308Z,16.97
2024-04-12T09:50:46.852Z,17.13
2024-04-12T09:53:32.371Z,17.32
2024-04-12T09:56:19.320Z,17.47
2024-04-12T09:59:09.480Z,17.53
2024-04-12T10:01:56.240Z,17.60
2024-04-12T10:04:43.370Z,17.65
2024-04-12T10:07:29.934Z,17.77
2024-04-12T10:10:15.731Z,17.77
2024-04-12T10:13:01.145Z,17.84
2024-04-12T10:15:46.864Z,18.04
2024-04-12T10:18:32.796Z,18.17
2024-04-12T10:21:27.757Z,18.23
2024-04-12T10:24:22.433Z,18.33
2024-04-12T10:27:07.742Z,18.47
2024-04-12T10:29:53.266Z,18.55
2024-04-12T10:32:45.272Z,18.57
2024-04-12T10:35:33.096Z,18.72
2024-04-12T10:37:59.759Z,18.76
2024-04-12T10:40:29.646Z,18.99
2024-04-12T10:42:57.571Z,18.85
2024-04-12T10:45:27.325Z,18.94
2024-04-12T10:47:58.138Z,19.00
2024-04-12T10:50:25.318Z,19.03
2024-04-12T10:52:52.729Z,19.13
2024-04-12T10:55:22.626Z,19.20
2024-04-12T10:57:49.960Z,19.25
2024-04-12T11:00:18.858Z,19.37
2024-04-12T11:02:58.249Z,19.40
2024-04-12T11:05:36.445Z,19.48
2024-04-12T11:08:12.690Z,19.71
2024-04-12T11:10:58.873Z,19.79
2024-04-12T11:13:37.097Z,19.95
2024-04-12T11:16:23.200Z,20.14
2024-04-12T11:19:11.920Z,20.28
2024-04-12T11:21:58.482Z,20.47
2024-04-12T11:24:44.276Z,20.57
2024-04-12T11:27:29.828Z,20.69
2024-04-12T11:52:00.727Z,21.12
2024-04-12T11:54:31.087Z,21.21
2024-04-12T11:57:00.809Z,21.26
2024-04-12T11:59:31.719Z,21.29
2024-04-12T12:02:03.178Z,21.32
2024-04-12T12:04:30.712Z,21.38
2024-04-12T12:07:00.977Z,21.45
2024-04-12T12:09:32.855Z,21.55
2024-04-12T12:12:02.145Z,21.51
2024-04-12T12:14:29.152Z,21.65
2024-04-12T12:16:58.688Z,21.70
2024-04-12T12:19:25.841Z,21.58
2024-04-12T12:21:52.871Z,21.63
2024-04-12T12:24:21.112Z,21.71
2024-04-12T12:26:51.531Z,21.72
2024-04-12T12:29:19.977Z,21.79
2024-04-12T12:31:48.098Z,21.84
2024-04-12T12:34:15.856Z,21.93
2024-04-12T12:36:42.915Z,22.01
2024-04-12T12:39:13.360Z,22.13
2024-04-12T12:41:46.932Z,22.17
2024-04-12T12:44:19.481Z,22.13
2024-04-12T12:46:46.850Z,22.13
2024-04-12T12:49:13.778Z,22.14
2024-04-12T12:51:41.645Z,22.35
2024-04-12T12:54:09.304Z,22.37
2024-04-12T12:56:36.688Z,22.32
2024-04-12T12:59:04.173Z,22.35
2024-04-12T13:01:36.293Z,22.45
2024-04-12T13:04:08.626Z,22.28
2024-04-12T13:06:36.214Z,22.19
2024-04-12T13:09:10.344Z,22.27
2024-04-12T13:11:37.827Z,22.32
2024-04-12T13:14:10.918Z,22.32
2024-04-12T13:16:43.187Z,22.38
2024-04-12T13:19:17.077Z,22.55
2024-04-12T13:21:44.257Z,22.61
2024-04-12T13:24:15.086Z,22.69
2024-04-12T13:26:51.861Z,22.74
2024-04-12T13:29:19.347Z,22.80
2024-04-12T13:31:51.687Z,22.80
2024-04-12T13:34:19.993Z,22.80
2024-04-12T13:36:48.936Z,22.86
2024-04-12T13:39:16.443Z,22.79
2024-04-12T13:41:46.616Z,22.76
2024-04-12T13:44:26.711Z,22.73
2024-04-12T13:47:13.215Z,22.75
2024-04-12T13:49:58.737Z,22.55
2024-04-12T13:52:26.607Z,22.65
2024-04-12T13:54:57.330Z,22.57
2024-04-12T13:57:26.061Z,22.66
2024-04-12T13:59:53.524Z,22.69
2024-04-12T14:02:20.551Z,22.81
2024-04-12T14:04:47.775Z,22.77
2024-04-12T14:07:16.426Z,22.78
2024-04-12T14:09:43.200Z,22.80
2024-04-12T14:12:11.443Z,22.74
2024-04-12T14:14:38.459Z,22.70
2024-04-12T14:17:06.786Z,22.75
2024-04-12T14:19:33.604Z,22.82
2024-04-12T14:22:00.519Z,22.87
2024-04-12T14:24:46.257Z,22.80
2024-04-12T14:27:14.144Z,22.72
2024-04-12T14:29:41.100Z,22.75
2024-04-12T14:32:08.334Z,22.75
2024-04-12T14:34:37.006Z,22.66
2024-04-12T14:37:05.316Z,22.72
2024-04-12T14:39:34.098Z,22.64
2024-04-12T14:42:03.076Z,22.66
2024-04-12T14:44:40.444Z,22.54
2024-04-12T14:47:08.550Z,22.61
2024-04-12T14:49:35.519Z,22.56
2024-04-12T14:52:02.838Z,22.62
2024-04-12T14:54:31.770Z,22.61
2024-04-12T14:56:58.823Z,22.60
2024-04-12T14:59:25.730Z,22.59
2024-04-12T15:01:52.549Z,22.62
2024-04-12T15:04:37.842Z,22.59
2024-04-12T15:07:23.549Z,22.52
2024-04-12T15:10:08.889Z,22.49
2024-04-12T15:12:54.514Z,22.47
2024-04-12T15:15:40.192Z,22.40
2024-04-12T15:18:26.292Z,22.40
2024-04-12T15:21:12.172Z,22.29
2024-04-12T15:23:57.626Z,22.23
2024-04-12T15:26:42.892Z,22.27
2024-04-12T15:29:28.354Z,22.34
2024-04-12T15:32:14.015Z,22.36
2024-04-12T15:34:59.426Z,22.38
2024-04-12T15:37:44.625Z,22.44
2024-04-12T15:40:30.108Z,22.36
2024-04-12T15:43:15.356Z,22.33
2024-04-12T15:46:01.030Z,22.28
2024-04-12T15:48:30.486Z,22.28
2024-04-12T15:50:57.986Z,22.31
2024-04-12T15:53:27.227Z,22.27
2024-04-12T15:55:55.320Z,22.25
2024-04-12T15:58:44.145Z,22.15
2024-04-12T16:01:30.065Z,22.10
2024-04-12T16:04:16.230Z,22.06
2024-04-12T16:07:02.030Z,22.08
2024-04-12T16:09:47.502Z,22.08
2024-04-12T16:12:14.483Z,22.01
2024-04-12T16:14:41.250Z,21.97
2024-04-12T16:17:12.015Z,21.88
2024-04-12T16:19:47.877Z,21.78
2024-04-12T16:22:14.729Z,21.80
2024-04-12T16:24:41.629Z,21.75
2024-04-12T16:27:08.924Z,21.74
2024-04-12T16:29:38.699Z,21.71
2024-04-12T16:32:05.845Z,21.70
2024-04-12T16:34:32.693Z,21.62
2024-04-12T16:37:05.117Z,21.56
2024-04-12T16:39:32.191Z,21.51
2024-04-12T16:41:58.920Z,21.44
2024-04-12T16:44:27.591Z,21.39
2024-04-12T16:46:54.491Z,21.40
2024-04-12T16:49:21.305Z,21.33
2024-04-12T16:51:51.129Z,21.28
2024-04-12T16:54:18.007Z,21.26
2024-04-12T16:56:44.811Z,21.28
2024-04-12T16:59:12.467Z,21.25
2024-04-12T17:01:39.234Z,21.26
2024-04-12T17:04:06.198Z,21.19
2024-04-12T17:06:33.076Z,21.17
2024-04-12T17:08:59.811Z,21.16
2024-04-12T17:11:27.446Z,21.15
2024-04-12T17:13:54.342Z,21.15
2024-04-12T17:16:21.863Z,21.10
2024-04-12T17:18:49.238Z,21.07
2024-04-12T17:21:16.235Z,21.00
2024-04-12T17:23:43.157Z,20.93
2024-04-12T17:26:09.988Z,20.91
2024-04-12T17:28:39.420Z,20.88
2024-04-12T17:31:09.554Z,20.82
2024-04-12T17:33:36.623Z,20.74
2024-04-12T17:36:07.820Z,20.63
2024-04-12T17:38:37.420Z,20.53
2024-04-12T17:41:04.445Z,20.39
2024-04-12T17:43:31.431Z,20.32
2024-04-12T17:45:58.601Z,20.24
2024-04-12T17:48:25.594Z,20.17
2024-04-12T17:50:53.589Z,20.03
2024-04-12T17:53:20.592Z,19.92
2024-04-12T17:55:47.313Z,19.82
2024-04-12T17:58:14.088Z,19.70
2024-04-12T18:00:41.052Z,19.57
2024-04-12T18:03:09.843Z,19.44
2024-04-12T18:05:39.064Z,19.31
2024-04-12T18:08:06.748Z,19.22
2024-04-12T18:10:33.643Z,19.13
2024-04-12T18:13:00.972Z,19.09
2024-04-12T18:15:29.087Z,18.95
2024-04-12T18:17:55.950Z,18.80
2024-04-12T18:20:25.974Z,18.56
2024-04-12T18:22:53.819Z,18.34
2024-04-12T18:25:20.922Z,18.10
2024-04-12T18:27:47.788Z,17.86
2024-04-12T18:30:14.640Z,17.63
2024-04-12T18:32:42.696Z,17.46
2024-04-12T18:35:14.017Z,17.30
2024-04-12T18:38:01.440Z,17.14
2024-04-12T18:40:46.832Z,16.94
2024-04-12T18:43:31.927Z,16.80
2024-04-12T18:45:59.062Z,16.55
2024-04-12T18:48:28.076Z,16.37
2024-04-12T18:50:55.011Z,16.18
2024-04-12T18:53:23.206Z,16.05
2024-04-12T18:55:50.226Z,15.95
2024-04-12T18:58:16.921Z,15.83
2024-04-12T19:00:49.879Z,15.75
2024-04-12T19:03:16.784Z,15.54
2024-04-12T19:05:45.689Z,15.44
2024-04-12T19:08:12.893Z,15.26
2024-04-12T19:10:41.312Z,15.17
2024-04-12T19:13:08.930Z,15.13
2024-04-12T19:15:42.115Z,15.09
2024-04-12T19:18:10.984Z,15.01
2024-04-12T19:20:44.378Z,15.01
2024-04-12T19:23:12.292Z,14.95
2024-04-12T19:25:39.477Z,14.89
2024-04-12T19:28:06.434Z,14.85
2024-04-12T19:30:37.730Z,14.94
2024-04-12T19:33:04.821Z,15.06
2024-04-12T19:35:31.713Z,15.11
2024-04-12T19:37:58.425Z,15.14
2024-04-12T19:40:25.076Z,15.17
2024-04-12T19:42:51.835Z,15.20
2024-04-12T19:45:18.542Z,15.22
2024-04-12T19:47:45.366Z,15.19
2024-04-12T19:50:12.262Z,15.16
2024-04-12T19:52:47.337Z,15.06
2024-04-12T19:55:18.033Z,14.99
2024-04-12T19:57:44.782Z,14.98
2024-04-12T20:00:14.082Z,14.84
2024-04-12T20:02:41.015Z,14.53
2024-04-12T20:05:07.770Z,14.34
2024-04-12T20:07:34.565Z,14.10
2024-04-12T20:10:01.295Z,13.83
2024-04-12T20:12:27.988Z,13.62
2024-04-12T20:14:56.393Z,13.65
2024-04-12T20:17:23.610Z,13.46
2024-04-12T20:19:53.638Z,13.38
2024-04-12T20:22:23.441Z,13.29
2024-04-12T20:24:50.583Z,13.22
2024-04-12T20:27:18.233Z,13.17
2024-04-12T20:29:56.202Z,13.18
2024-04-12T20:32:25.710Z,13.14
2024-04-12T20:35:15.770Z,13.16
2024-04-12T20:37:43.919Z,13.05
2024-04-12T20:40:10.771Z,12.94
2024-04-12T20:42:37.610Z,12.86
2024-04-12T20:45:04.924Z,12.77
2024-04-12T20:47:31.632Z,12.75
2024-04-12T20:49:58.435Z,12.73
2024-04-12T20:52:25.347Z,12.80
2024-04-12T20:54:52.033Z,12.75
2024-04-12T20:57:19.683Z,12.61
2024-04-12T20:59:52.496Z,12.45
2024-04-12T21:02:19.336Z,12.34
2024-04-12T21:04:51.244Z,12.22
2024-04-12T21:07:18.521Z,12.14
2024-04-12T21:09:45.385Z,12.06
2024-04-12T21:12:12.219Z,11.99
2024-04-12T21:14:41.411Z,11.97
2024-04-12T21:17:09.713Z,11.93
2024-04-12T21:19:36.501Z,11.92
2024-04-12T21:22:03.242Z,11.90
2024-04-12T21:24:31.319Z,11.88
2024-04-12T21:26:58.374Z,11.80
2024-04-12T21:29:25.025Z,11.74
2024-04-12T21:31:51.716Z,11.69
2024-04-12T21:34:18.790Z,11.63
2024-04-12T21:36:45.453Z,11.57
2024-04-12T21:39:12.333Z,11.52
2024-04-12T21:41:39.208Z,11.47
2024-04-12T21:44:09.814Z,11.42
2024-04-12T21:46:37.011Z,11.39
2024-04-12T21:49:06.215Z,11.34
2024-04-12T21:51:33.133Z,11.30
2024-04-12T21:54:01.849Z,11.32
2024-04-12T21:56:28.930Z,11.36
2024-04-12T21:58:55.617Z,11.39
2024-04-12T22:01:22.302Z,11.42
2024-04-12T22:03:49.406Z,11.49
2024-04-12T22:06:16.506Z,11.52
2024-04-12T22:08:44.166Z,11.55
2024-04-12T22:11:11.661Z,11.55
2024-04-12T22:13:39.365Z,11.51
2024-04-12T22:16:10.648Z,11.58
2024-04-12T22:18:39.930Z,11.62
2024-04-12T22:21:15.843Z,11.63
2024-04-12T22:23:45.634Z,11.64
2024-04-12T22:26:17.693Z,11.64
2024-04-12T22:28:48.761Z,11.56
2024-04-12T22:31:17.663Z,11.31
2024-04-12T22:33:46.074Z,11.11
2024-04-12T22:36:13.489Z,10.92
2024-04-12T22:38:40.365Z,10.83
2024-04-12T22:41:08.000Z,10.75
2024-04-12T22:43:34.830Z,10.62
2024-04-12T22:46:01.482Z,10.51
2024-04-12T22:48:28.480Z,10.45
2024-04-12T22:50:55.461Z,10.36
2024-04-12T22:53:22.833Z,10.25
2024-04-12T22:55:50.433Z,10.19
2024-04-12T22:58:17.225Z,10.17
2024-04-12T23:00:44.567Z,10.13
2024-04-12T23:03:11.561Z,10.10
2024-04-12T23:05:38.408Z,10.06
2024-04-12T23:08:05.374Z,10.03
2024-04-12T23:10:33.803Z,9.97
2024-04-12T23:13:00.722Z,9.97
2024-04-12T23:15:27.710Z,9.96
2024-04-12T23:17:54.835Z,9.93
2024-04-12T23:20:23.712Z,9.89
2024-04-12T23:22:50.488Z,9.88
2024-04-12T23:25:17.466Z,9.93
2024-04-12T23:27:44.333Z,9.99
2024-04-12T23:30:11.332Z,10.06
2024-04-12T23:32:38.448Z,10.10
2024-04-12T23:35:05.793Z,10.14
2024-04-12T23:37:34.316Z,10.21
2024-04-12T23:40:01.196Z,10.27
2024-04-12T23:42:28.841Z,10.28
2024-04-12T23:44:55.656Z,10.31
2024-04-12T23:47:22.683Z,10.31
2024-04-12T23:49:49.568Z,10.11
2024-04-12T23:52:16.280Z,9.87
2024-04-12T23:54:42.954Z,9.71
2024-04-12T23:57:09.870Z,9.59
2024-04-12T23:59:36.584Z,9.49
